createdAt,value
2023-05-24T00:01:52.825Z,2.03
2023-05-24T00:04:42.063Z,2.13
2023-05-24T00:07:12.738Z,2.15
2023-05-24T00:09:43.335Z,2.00
2023-05-24T00:12:13.808Z,2.15
2023-05-24T00:14:44.358Z,2.40
2023-05-24T00:17:14.763Z,1.88
2023-05-24T00:19:45.226Z,2.30
2023-05-24T00:22:15.682Z,2.67
2023-05-24T00:24:46.124Z,3.10
2023-05-24T00:27:17.446Z,2.60
2023-05-24T00:29:48.094Z,2.45
2023-05-24T00:32:20.169Z,2.55
2023-05-24T00:34:54.312Z,2.53
2023-05-24T00:37:25.122Z,2.13
2023-05-24T00:39:55.751Z,2.20
2023-05-24T00:42:26.402Z,2.70
2023-05-24T00:44:56.990Z,2.42
2023-05-24T00:47:27.500Z,2.53
2023-05-24T00:49:58.614Z,3.10
2023-05-24T00:52:29.100Z,2.90
2023-05-24T00:55:00.107Z,2.90
2023-05-24T00:57:31.504Z,3.22
2023-05-24T01:00:02.592Z,2.60
2023-05-24T01:02:34.177Z,3.30
2023-05-24T01:05:05.951Z,2.70
2023-05-24T01:07:48.305Z,2.97
2023-05-24T01:13:28.515Z,3.10
2023-05-24T01:16:07.348Z,3.08
2023-05-24T01:18:43.704Z,3.03
2023-05-24T01:21:16.025Z,2.85
2023-05-24T01:24:07.385Z,3.35
2023-05-24T01:26:45.221Z,5.40
2023-05-24T01:29:16.813Z,4.60
2023-05-24T01:31:47.667Z,4.23
2023-05-24T01:34:20.541Z,5.13
2023-05-24T01:36:51.651Z,5.03
2023-05-24T01:39:23.815Z,4.07
2023-05-24T01:42:25.624Z,3.78
2023-05-24T01:45:01.933Z,3.80
2023-05-24T01:48:13.685Z,4.20
2023-05-24T01:50:55.335Z,3.80
2023-05-24T01:53:34.280Z,3.67
2023-05-24T01:56:07.789Z,3.15
2023-05-24T01:58:40.809Z,3.00
2023-05-24T02:01:12.465Z,2.83
2023-05-24T02:03:43.404Z,2.50
2023-05-24T02:06:13.824Z,2.92
2023-05-24T02:08:44.278Z,2.63
2023-05-24T02:11:14.692Z,2.80
2023-05-24T02:13:45.386Z,2.00
2023-05-24T02:16:15.951Z,2.47
2023-05-24T02:19:04.321Z,2.10
2023-05-24T02:21:53.048Z,2.10
2023-05-24T02:24:23.574Z,1.90
2023-05-24T02:26:54.084Z,2.17
2023-05-24T02:29:25.282Z,1.83
2023-05-24T02:31:58.213Z,1.58
2023-05-24T02:34:29.026Z,1.70
2023-05-24T02:36:59.438Z,1.38
2023-05-24T02:39:30.194Z,1.80
2023-05-24T02:42:00.873Z,1.70
2023-05-24T02:44:31.338Z,1.50
2023-05-24T02:47:01.937Z,1.30
2023-05-24T02:49:32.453Z,1.70
2023-05-24T02:52:02.876Z,1.30
2023-05-24T02:54:33.184Z,1.40
2023-05-24T02:57:04.354Z,1.50
2023-05-24T02:59:36.090Z,1.70
2023-05-24T03:02:06.855Z,1.33
2023-05-24T03:04:37.370Z,1.50
2023-05-24T03:07:08.815Z,1.40
2023-05-24T03:09:39.281Z,1.35
2023-05-24T03:12:27.835Z,1.30
2023-05-24T03:14:58.497Z,1.50
2023-05-24T03:17:29.043Z,1.60
2023-05-24T03:19:59.593Z,1.25
2023-05-24T03:22:48.270Z,1.38
2023-05-24T03:25:18.794Z,1.42
2023-05-24T03:27:49.951Z,1.60
2023-05-24T03:30:21.895Z,1.38
2023-05-24T03:32:56.667Z,1.27
2023-05-24T03:35:27.293Z,1.33
2023-05-24T03:37:59.357Z,1.10
2023-05-24T03:40:34.074Z,1.23
2023-05-24T03:43:16.110Z,1.15
2023-05-24T03:45:53.704Z,1.20
2023-05-24T03:48:24.459Z,1.27
2023-05-24T03:50:55.490Z,1.30
2023-05-24T03:53:25.938Z,1.73
2023-05-24T03:55:57.616Z,1.90
2023-05-24T03:58:28.161Z,1.98
2023-05-24T04:00:58.739Z,2.10
2023-05-24T04:03:30.052Z,2.83
2023-05-24T04:06:00.570Z,2.97
2023-05-24T04:08:30.976Z,7.13
2023-05-24T04:11:01.446Z,6.93
2023-05-24T04:13:32.344Z,7.15
2023-05-24T04:16:02.890Z,7.88
2023-05-24T04:18:33.583Z,9.15
2023-05-24T04:21:04.134Z,8.85
2023-05-24T04:23:35.130Z,8.98
2023-05-24T04:26:05.596Z,9.75
2023-05-24T04:28:37.458Z,9.40
2023-05-24T04:31:11.543Z,7.73
2023-05-24T04:33:43.286Z,7.10
2023-05-24T04:36:14.881Z,7.38
2023-05-24T04:38:47.303Z,6.50
2023-05-24T04:41:17.829Z,6.13
2023-05-24T04:43:48.604Z,6.85
2023-05-24T04:46:18.953Z,6.50
2023-05-24T04:48:49.843Z,9.55
2023-05-24T04:51:20.601Z,7.22
2023-05-24T04:53:51.056Z,7.75
2023-05-24T04:56:21.655Z,6.32
2023-05-24T04:58:52.042Z,6.50
2023-05-24T05:01:23.216Z,7.80
2023-05-24T05:03:53.866Z,6.55
2023-05-24T05:06:24.431Z,6.72
2023-05-24T05:08:55.158Z,6.78
2023-05-24T05:11:25.632Z,5.85
2023-05-24T05:13:56.350Z,5.90
2023-05-24T05:16:26.918Z,6.20
2023-05-24T05:18:57.506Z,6.32
2023-05-24T05:21:28.069Z,5.70
2023-05-24T05:23:58.608Z,9.18
2023-05-24T05:26:32.612Z,8.18
2023-05-24T05:29:03.129Z,6.95
2023-05-24T05:31:33.606Z,6.38
2023-05-24T05:34:04.250Z,6.93
2023-05-24T05:36:34.853Z,11.50
2023-05-24T05:39:05.165Z,6.28
2023-05-24T05:41:35.547Z,8.98
2023-05-24T05:44:06.019Z,13.30
2023-05-24T05:46:36.519Z,12.00
2023-05-24T05:49:08.444Z,10.65
2023-05-24T05:51:40.351Z,9.52
2023-05-24T05:54:15.863Z,25.80
2023-05-24T05:56:49.482Z,12.50
2023-05-24T05:59:21.410Z,7.38
2023-05-24T06:01:52.438Z,6.40
2023-05-24T06:04:22.754Z,6.63
2023-05-24T06:06:53.666Z,5.93
2023-05-24T06:09:24.200Z,6.60
2023-05-24T06:11:54.631Z,5.82
2023-05-24T06:14:26.642Z,5.20
2023-05-24T06:16:58.090Z,5.13
2023-05-24T06:19:30.539Z,4.72
2023-05-24T06:22:01.817Z,5.05
2023-05-24T06:24:32.409Z,5.20
2023-05-24T06:27:05.265Z,5.18
2023-05-24T06:29:36.008Z,5.18
2023-05-24T06:32:07.123Z,5.53
2023-05-24T06:34:37.688Z,6.22
2023-05-24T06:37:11.804Z,6.00
2023-05-24T06:39:42.705Z,6.75
2023-05-24T06:42:13.165Z,6.22
2023-05-24T06:44:48.373Z,6.95
2023-05-24T06:47:19.150Z,7.15
2023-05-24T06:49:50.488Z,6.40
2023-05-24T06:52:20.902Z,6.40
2023-05-24T06:54:52.393Z,5.82
2023-05-24T06:57:23.274Z,5.37
2023-05-24T06:59:53.712Z,5.50
2023-05-24T07:02:28.122Z,5.85
2023-05-24T07:04:58.717Z,5.60
2023-05-24T07:07:29.150Z,4.88
2023-05-24T07:09:59.729Z,4.93
2023-05-24T07:12:30.194Z,4.50
2023-05-24T07:15:00.772Z,4.78
2023-05-24T07:17:31.284Z,4.47
2023-05-24T07:20:03.811Z,4.88
2023-05-24T07:25:04.382Z,5.20
2023-05-24T07:27:34.838Z,5.32
2023-05-24T07:30:09.518Z,4.65
2023-05-24T07:32:47.892Z,5.10
2023-05-24T07:35:18.487Z,4.40
2023-05-24T07:37:49.393Z,4.47
2023-05-24T07:40:19.926Z,4.50
2023-05-24T07:42:50.612Z,4.68
2023-05-24T07:45:21.228Z,5.00
2023-05-24T07:47:53.212Z,4.55
2023-05-24T07:50:24.812Z,4.68
2023-05-24T07:52:56.150Z,4.70
2023-05-24T07:55:26.605Z,4.80
2023-05-24T07:57:58.143Z,4.82
2023-05-24T08:00:29.311Z,4.50
2023-05-24T08:02:59.804Z,4.80
2023-05-24T08:05:30.505Z,4.63
2023-05-24T08:08:00.989Z,4.35
2023-05-24T08:10:31.531Z,4.38
2023-05-24T08:13:02.188Z,4.65
2023-05-24T08:15:32.747Z,4.93
2023-05-24T08:18:03.200Z,4.38
2023-05-24T08:20:37.574Z,4.68
2023-05-24T08:23:26.118Z,4.43
2023-05-24T08:25:56.698Z,4.30
2023-05-24T08:28:27.147Z,4.38
2023-05-24T08:30:58.857Z,5.00
2023-05-24T08:33:30.607Z,4.53
2023-05-24T08:36:01.067Z,4.97
2023-05-24T08:38:31.542Z,4.82
2023-05-24T08:41:02.358Z,4.50
2023-05-24T08:43:33.012Z,4.30
2023-05-24T08:46:05.266Z,4.90
2023-05-24T08:48:55.060Z,4.35
2023-05-24T08:51:26.372Z,4.90
2023-05-24T08:53:57.730Z,4.43
2023-05-24T08:56:30.492Z,4.20
2023-05-24T08:59:00.878Z,4.38
2023-05-24T09:01:34.620Z,4.93
2023-05-24T09:04:08.325Z,4.78
2023-05-24T09:06:39.228Z,4.72
2023-05-24T09:09:10.972Z,4.53
2023-05-24T09:11:44.875Z,5.00
2023-05-24T09:14:16.515Z,4.45
2023-05-24T09:16:47.127Z,4.32
2023-05-24T09:19:18.561Z,4.30
2023-05-24T09:21:51.013Z,4.28
2023-05-24T09:24:21.881Z,4.60
2023-05-24T09:26:55.559Z,4.60
2023-05-24T09:29:26.226Z,4.30
2023-05-24T09:31:59.141Z,4.88
2023-05-24T09:34:29.672Z,4.55
2023-05-24T09:37:00.181Z,4.82
2023-05-24T09:39:31.037Z,4.82
2023-05-24T09:42:01.273Z,4.75
2023-05-24T09:44:31.670Z,4.72
2023-05-24T09:47:09.119Z,4.57
2023-05-24T09:49:40.327Z,4.70
2023-05-24T09:52:10.810Z,4.25
2023-05-24T09:54:43.259Z,4.45
2023-05-24T09:57:13.758Z,4.35
2023-05-24T09:59:45.765Z,4.53
2023-05-24T10:02:17.660Z,4.30
2023-05-24T10:04:48.664Z,4.07
2023-05-24T10:07:20.016Z,4.45
2023-05-24T10:09:51.673Z,4.25
2023-05-24T10:12:24.698Z,4.70
2023-05-24T10:14:59.004Z,4.30
2023-05-24T10:17:30.400Z,4.53
2023-05-24T10:20:00.910Z,4.38
2023-05-24T10:22:32.057Z,4.68
2023-05-24T10:25:03.103Z,4.38
2023-05-24T10:27:34.895Z,4.80
2023-05-24T10:30:23.685Z,4.82
2023-05-24T10:32:55.977Z,4.38
2023-05-24T10:35:28.963Z,4.55
2023-05-24T10:37:59.614Z,4.70
2023-05-24T10:40:30.229Z,5.13
2023-05-24T10:43:00.800Z,4.53
2023-05-24T10:45:32.781Z,4.65
2023-05-24T10:48:32.013Z,4.32
2023-05-24T10:51:23.800Z,4.65
2023-05-24T10:53:54.180Z,4.53
2023-05-24T10:56:25.274Z,4.05
2023-05-24T10:59:01.282Z,4.95
2023-05-24T11:01:33.594Z,4.70
2023-05-24T11:04:18.397Z,4.40
2023-05-24T11:07:19.651Z,4.60
2023-05-24T11:09:58.478Z,4.72
2023-05-24T11:12:40.084Z,4.25
2023-05-24T11:15:14.118Z,4.20
2023-05-24T11:18:14.342Z,4.68
2023-05-24T11:21:05.487Z,4.63
2023-05-24T11:23:38.163Z,4.40
2023-05-24T11:26:09.383Z,4.72
2023-05-24T11:28:40.555Z,4.88
2023-05-24T11:31:11.546Z,5.10
2023-05-24T11:33:44.282Z,4.95
2023-05-24T11:36:14.872Z,4.20
2023-05-24T11:38:45.338Z,4.05
2023-05-24T11:41:15.948Z,4.50
2023-05-24T11:43:47.550Z,4.35
2023-05-24T11:46:21.897Z,4.95
2023-05-24T11:49:02.541Z,4.63
2023-05-24T11:51:34.742Z,4.40
2023-05-24T11:54:05.149Z,4.38
2023-05-24T11:56:35.541Z,4.50
2023-05-24T11:59:18.128Z,4.50
2023-05-24T12:01:48.726Z,4.40
2023-05-24T12:04:19.134Z,4.30
2023-05-24T12:06:49.824Z,4.53
2023-05-24T12:09:20.445Z,4.55
2023-05-24T12:11:52.556Z,4.65
2023-05-24T12:16:58.903Z,4.15
2023-05-24T12:19:37.602Z,4.50
2023-05-24T12:22:09.642Z,4.90
2023-05-24T12:24:40.113Z,4.72
2023-05-24T12:27:11.652Z,4.40
2023-05-24T12:29:43.792Z,4.10
2023-05-24T12:32:15.096Z,5.13
2023-05-24T12:34:46.935Z,4.32
2023-05-24T12:37:17.679Z,4.60
2023-05-24T12:39:48.491Z,4.45
2023-05-24T12:42:18.865Z,4.63
2023-05-24T12:45:07.740Z,4.65
2023-05-24T12:47:38.691Z,4.32
2023-05-24T12:50:09.506Z,4.70
2023-05-24T12:52:40.301Z,4.50
2023-05-24T12:55:11.045Z,4.53
2023-05-24T12:57:42.306Z,4.63
2023-05-24T13:00:14.608Z,4.70
2023-05-24T13:02:45.286Z,4.88
2023-05-24T13:05:15.820Z,4.05
2023-05-24T13:07:47.402Z,4.43
2023-05-24T13:10:17.830Z,5.17
2023-05-24T13:12:48.930Z,4.50
2023-05-24T13:15:21.017Z,3.95
2023-05-24T13:17:51.529Z,5.10
2023-05-24T13:20:23.962Z,4.65
2023-05-24T13:22:55.125Z,4.88
2023-05-24T13:25:25.740Z,4.28
2023-05-24T13:27:56.101Z,5.05
2023-05-24T13:30:29.421Z,4.13
2023-05-24T13:33:01.025Z,4.60
2023-05-24T13:35:32.794Z,4.38
2023-05-24T13:38:03.092Z,4.20
2023-05-24T13:40:33.901Z,5.15
2023-05-24T13:43:05.411Z,4.18
2023-05-24T13:45:36.054Z,4.30
2023-05-24T13:48:07.096Z,4.00
2023-05-24T13:50:38.964Z,4.55
2023-05-24T13:53:10.446Z,4.40
2023-05-24T13:55:41.009Z,4.70
2023-05-24T13:58:12.070Z,4.45
2023-05-24T14:00:44.177Z,4.65
2023-05-24T14:03:16.241Z,4.47
2023-05-24T14:05:46.719Z,3.97
2023-05-24T14:08:17.573Z,4.20
2023-05-24T14:10:51.350Z,3.95
2023-05-24T14:14:04.721Z,4.20
2023-05-24T14:16:13.224Z,4.20
2023-05-24T14:18:44.729Z,4.15
2023-05-24T14:21:15.130Z,4.22
2023-05-24T14:24:03.597Z,4.20
2023-05-24T14:26:34.021Z,4.55
2023-05-24T14:29:04.650Z,4.50
2023-05-24T14:31:37.211Z,4.60
2023-05-24T14:34:07.741Z,4.50
2023-05-24T14:36:40.093Z,4.82
2023-05-24T14:41:40.253Z,3.90
2023-05-24T14:44:10.695Z,4.35
2023-05-24T14:46:43.204Z,4.50
2023-05-24T14:49:13.776Z,4.60
2023-05-24T14:51:44.246Z,4.57
2023-05-24T14:54:14.679Z,4.68
2023-05-24T14:56:45.171Z,4.22
2023-05-24T14:59:16.177Z,4.40
2023-05-24T15:01:46.695Z,4.75
2023-05-24T15:04:17.419Z,4.75
2023-05-24T15:06:47.997Z,4.80
2023-05-24T15:09:18.456Z,4.45
2023-05-24T15:11:49.216Z,4.57
2023-05-24T15:14:19.813Z,4.40
2023-05-24T15:16:51.154Z,4.63
2023-05-24T15:19:21.779Z,4.60
2023-05-24T15:21:52.375Z,4.65
2023-05-24T15:24:22.802Z,3.92
2023-05-24T15:26:53.844Z,4.53
2023-05-24T15:29:24.403Z,4.25
2023-05-24T15:31:54.979Z,4.38
2023-05-24T15:34:25.460Z,4.80
2023-05-24T15:36:56.026Z,4.50
2023-05-24T15:39:26.425Z,4.70
2023-05-24T15:41:57.065Z,4.78
2023-05-24T15:44:27.466Z,4.22
2023-05-24T15:46:58.053Z,4.63
2023-05-24T15:49:28.781Z,4.80
2023-05-24T15:52:04.179Z,4.68
2023-05-24T15:54:35.359Z,4.22
2023-05-24T15:57:05.771Z,4.32
2023-05-24T15:59:38.377Z,4.25
2023-05-24T16:02:10.034Z,4.15
2023-05-24T16:04:40.864Z,4.18
2023-05-24T16:07:11.506Z,4.20
2023-05-24T16:09:41.790Z,4.70
2023-05-24T16:12:12.446Z,4.30
2023-05-24T16:14:42.834Z,4.65
2023-05-24T16:17:13.580Z,3.97
2023-05-24T16:19:44.415Z,4.45
2023-05-24T16:22:14.800Z,4.38
2023-05-24T16:24:46.324Z,4.55
2023-05-24T16:27:16.964Z,4.10
2023-05-24T16:29:48.409Z,4.18
2023-05-24T16:32:18.843Z,4.80
2023-05-24T16:34:56.911Z,4.78
2023-05-24T16:37:27.778Z,4.40
2023-05-24T16:39:58.225Z,4.00
2023-05-24T16:42:28.580Z,4.00
2023-05-24T16:44:59.091Z,4.38
2023-05-24T16:47:30.296Z,4.53
2023-05-24T16:50:00.828Z,4.05
2023-05-24T16:52:31.423Z,4.13
2023-05-24T16:55:02.062Z,4.07
2023-05-24T16:57:50.759Z,4.20
2023-05-24T17:00:21.645Z,4.30
2023-05-24T17:02:52.191Z,4.45
2023-05-24T17:05:22.868Z,4.28
2023-05-24T17:07:53.374Z,4.40
2023-05-24T17:10:23.989Z,4.20
2023-05-24T17:12:54.848Z,4.18
2023-05-24T17:15:25.341Z,4.53
2023-05-24T17:17:57.706Z,4.55
2023-05-24T17:20:28.335Z,4.57
2023-05-24T17:22:58.913Z,4.00
2023-05-24T17:25:30.419Z,4.32
2023-05-24T17:28:00.815Z,4.57
2023-05-24T17:30:31.945Z,4.53
2023-05-24T17:33:02.581Z,4.55
2023-05-24T17:35:33.126Z,4.63
2023-05-24T17:38:03.550Z,3.97
2023-05-24T17:40:34.014Z,4.20
2023-05-24T17:43:05.563Z,4.15
2023-05-24T17:45:36.117Z,4.23
2023-05-24T17:48:06.790Z,4.15
2023-05-24T17:50:37.817Z,4.47
2023-05-24T17:53:13.195Z,4.50
2023-05-24T17:55:53.720Z,4.07
2023-05-24T17:58:24.214Z,4.00
2023-05-24T18:00:54.999Z,4.20
2023-05-24T18:03:25.898Z,4.35
2023-05-24T18:05:56.521Z,4.00
2023-05-24T18:08:27.071Z,4.50
2023-05-24T18:10:57.484Z,3.80
2023-05-24T18:13:29.619Z,3.97
2023-05-24T18:16:00.005Z,3.70
2023-05-24T18:18:31.263Z,4.20
2023-05-24T18:21:02.098Z,3.67
2023-05-24T18:23:35.577Z,4.20
2023-05-24T18:26:15.045Z,4.25
2023-05-24T18:28:45.760Z,4.10
2023-05-24T18:31:16.450Z,4.25
2023-05-24T18:33:47.117Z,3.75
2023-05-24T18:36:17.575Z,4.45
2023-05-24T18:38:48.892Z,4.05
2023-05-24T18:41:19.953Z,4.00
2023-05-24T18:43:50.564Z,3.90
2023-05-24T18:46:21.067Z,4.35
2023-05-24T18:48:51.610Z,4.20
2023-05-24T18:51:22.076Z,4.13
2023-05-24T18:53:53.280Z,4.00
2023-05-24T18:56:24.385Z,3.60
2023-05-24T18:58:55.800Z,3.88
2023-05-24T19:01:26.947Z,4.38
2023-05-24T19:03:57.663Z,4.05
2023-05-24T19:06:28.196Z,3.92
2023-05-24T19:08:58.694Z,4.25
2023-05-24T19:11:29.799Z,4.10
2023-05-24T19:14:00.202Z,3.70
2023-05-24T19:16:30.886Z,4.30
2023-05-24T19:19:01.707Z,4.00
2023-05-24T19:21:34.683Z,4.20
2023-05-24T19:24:05.125Z,3.80
2023-05-24T19:26:35.555Z,4.25
2023-05-24T19:29:06.166Z,4.15
2023-05-24T19:31:37.763Z,4.20
2023-05-24T19:34:08.248Z,4.10
2023-05-24T19:36:38.820Z,3.65
2023-05-24T19:39:09.376Z,4.10
2023-05-24T19:41:40.071Z,3.67
2023-05-24T19:44:10.979Z,3.47
2023-05-24T19:46:41.364Z,3.35
2023-05-24T19:49:13.664Z,3.75
2023-05-24T19:51:44.095Z,3.45
2023-05-24T19:54:15.257Z,3.70
2023-05-24T19:56:47.279Z,3.20
2023-05-24T19:59:17.743Z,3.28
2023-05-24T20:01:48.163Z,3.05
2023-05-24T20:04:19.025Z,3.42
2023-05-24T20:06:49.715Z,3.35
2023-05-24T20:09:20.360Z,3.70
2023-05-24T20:11:50.996Z,3.15
2023-05-24T20:14:21.477Z,3.25
2023-05-24T20:16:51.886Z,2.85
2023-05-24T20:19:23.695Z,2.67
2023-05-24T20:21:54.457Z,2.75
2023-05-24T20:24:24.946Z,2.53
2023-05-24T20:26:55.345Z,3.17
2023-05-24T20:29:25.734Z,2.78
2023-05-24T20:31:56.210Z,2.67
2023-05-24T20:34:26.672Z,2.58
2023-05-24T20:36:57.214Z,2.80
2023-05-24T20:39:27.867Z,2.30
2023-05-24T20:41:58.674Z,2.90
2023-05-24T20:44:29.230Z,2.25
2023-05-24T20:46:59.653Z,2.20
2023-05-24T20:49:30.173Z,2.63
2023-05-24T20:52:00.805Z,2.25
2023-05-24T20:54:32.513Z,2.50
2023-05-24T20:57:03.539Z,3.22
2023-05-24T20:59:33.953Z,2.55
2023-05-24T21:02:04.365Z,2.40
2023-05-24T21:04:34.867Z,2.55
2023-05-24T21:07:05.409Z,2.33
2023-05-24T21:09:36.133Z,2.33
2023-05-24T21:12:07.877Z,2.53
2023-05-24T21:14:38.406Z,2.47
2023-05-24T21:17:08.829Z,2.25
2023-05-24T21:19:39.154Z,2.03
2023-05-24T21:22:09.716Z,2.40
2023-05-24T21:24:40.184Z,3.35
2023-05-24T21:27:11.016Z,2.50
2023-05-24T21:29:43.238Z,2.30
2023-05-24T21:32:32.026Z,2.40
2023-05-24T21:35:02.706Z,2.45
2023-05-24T21:37:33.169Z,2.42
2023-05-24T21:40:03.600Z,2.85
2023-05-24T21:42:34.170Z,2.70
2023-05-24T21:45:04.432Z,2.70
2023-05-24T21:47:36.885Z,2.40
2023-05-24T21:50:07.755Z,2.10
2023-05-24T21:52:38.212Z,2.42
2023-05-24T21:55:09.002Z,2.75
2023-05-24T21:57:39.697Z,2.17
2023-05-24T22:00:10.813Z,2.53
2023-05-24T22:02:41.291Z,2.08
2023-05-24T22:05:12.073Z,2.13
2023-05-24T22:08:00.618Z,2.35
2023-05-24T22:10:31.342Z,2.60
2023-05-24T22:13:02.068Z,2.03
2023-05-24T22:15:32.838Z,2.70
2023-05-24T22:18:03.395Z,2.55
2023-05-24T22:20:34.098Z,2.38
2023-05-24T22:23:04.978Z,2.40
2023-05-24T22:25:35.431Z,2.60
2023-05-24T22:28:07.018Z,2.50
2023-05-24T22:30:38.694Z,2.83
2023-05-24T22:33:09.170Z,2.40
2023-05-24T22:35:39.591Z,2.10
2023-05-24T22:38:10.176Z,2.38
2023-05-24T22:40:43.543Z,2.10
2023-05-24T22:43:13.927Z,2.10
2023-05-24T22:45:44.707Z,2.00
2023-05-24T22:48:15.394Z,2.10
2023-05-24T22:50:45.835Z,2.25
2023-05-24T22:53:18.691Z,2.40
2023-05-24T22:55:49.317Z,2.30
2023-05-24T22:58:22.999Z,2.20
2023-05-24T23:00:53.849Z,2.47
2023-05-24T23:03:24.394Z,2.72
2023-05-24T23:05:55.310Z,2.65
2023-05-24T23:08:27.208Z,2.90
2023-05-24T23:10:59.661Z,2.72
2023-05-24T23:13:34.598Z,2.75
2023-05-24T23:16:06.875Z,3.10
2023-05-24T23:18:39.173Z,3.10
2023-05-24T23:23:42.604Z,3.60
2023-05-24T23:26:13.043Z,3.03
2023-05-24T23:28:44.804Z,3.55
2023-05-24T23:31:15.301Z,3.38
2023-05-24T23:33:45.853Z,3.80
2023-05-24T23:36:16.293Z,4.07
2023-05-24T23:38:47.188Z,3.85
2023-05-24T23:41:17.878Z,3.55
2023-05-24T23:43:48.351Z,3.35
2023-05-24T23:46:18.951Z,3.42
2023-05-24T23:48:49.436Z,3.80
2023-05-24T23:51:21.723Z,3.90
2023-05-24T23:53:52.298Z,3.67
2023-05-24T23:56:23.021Z,3.53
2023-05-24T23:58:54.581Z,3.60
